Time;durP1;ratioP1;P1;durP2;ratioP2;P2;SDS_P1;SDS_P2;PMS_P1;PMS_P2;Temp;Humidity;BMP_temperature;BMP_pressure;BME280_temperature;BME280_humidity;BME280_pressure;Samples;Min_cycle;Max_cycle;Signal;HPM_P1;HPM_P2
2022/03/08 00:00:37;;;;;;;32.97;22.15;;;6.50;55.90;;;;;;5058369;28;20032;-50
2022/03/08 00:03:03;;;;;;;31.52;21.08;;;6.40;56.70;;;;;;5057894;28;20374;-49
2022/03/08 00:05:30;;;;;;;31.67;22.75;;;6.30;56.00;;;;;;5057902;28;20013;-49
2022/03/08 00:07:56;;;;;;;30.98;21.83;;;6.30;55.40;;;;;;5058067;28;20056;-51
2022/03/08 00:10:23;;;;;;;30.95;21.05;;;6.30;57.10;;;;;;5058057;28;20017;-52
2022/03/08 00:12:49;;;;;;;29.92;21.33;;;6.30;56.10;;;;;;5057774;28;20115;-51
2022/03/08 00:15:18;;;;;;;31.35;20.90;;;6.30;56.30;;;;;;5057933;28;20021;-47
2022/03/08 00:17:45;;;;;;;31.63;20.25;;;6.30;58.30;;;;;;5057934;28;20508;-50
2022/03/08 00:20:14;;;;;;;31.80;21.33;;;6.30;58.60;;;;;;5057905;28;20009;-48
2022/03/08 00:22:41;;;;;;;32.38;22.38;;;6.20;57.90;;;;;;5057818;28;20044;-49
2022/03/08 00:25:09;;;;;;;30.95;21.60;;;6.20;57.50;;;;;;5057615;28;20032;-49
2022/03/08 00:27:35;;;;;;;29.52;20.15;;;6.10;57.60;;;;;;5057613;28;20013;-50
2022/03/08 00:30:01;;;;;;;27.48;19.23;;;6.10;57.10;;;;;;5057774;28;20494;-49
2022/03/08 00:32:27;;;;;;;31.92;21.52;;;6.00;57.00;;;;;;5057580;28;20021;-49
2022/03/08 00:34:53;;;;;;;29.23;20.88;;;5.90;58.00;;;;;;5057261;28;20087;-50
2022/03/08 00:37:19;;;;;;;31.10;20.83;;;5.90;58.10;;;;;;5057572;28;20108;-52
2022/03/08 00:39:45;;;;;;;32.15;20.73;;;5.80;57.50;;;;;;5057488;28;20086;-52
2022/03/08 00:42:14;;;;;;;32.05;20.75;;;5.80;56.10;;;;;;5057500;28;20029;-49
2022/03/08 00:44:43;;;;;;;31.73;20.42;;;5.80;56.70;;;;;;5057525;28;20075;-49
2022/03/08 00:47:09;;;;;;;31.33;21.83;;;5.70;56.00;;;;;;5057438;28;20046;-50
2022/03/08 00:49:36;;;;;;;30.65;20.77;;;5.60;57.50;;;;;;5057631;28;20036;-47
2022/03/08 00:52:04;;;;;;;32.60;20.73;;;5.60;58.30;;;;;;5057801;28;20040;-48
2022/03/08 00:54:30;;;;;;;33.60;21.23;;;5.50;56.20;;;;;;5057582;28;20704;-48
2022/03/08 00:56:55;;;;;;;28.35;19.52;;;5.50;57.40;;;;;;5057800;28;20018;-47
2022/03/08 00:59:21;;;;;;;29.35;19.83;;;5.50;57.30;;;;;;5057528;28;20025;-49
2022/03/08 01:01:47;;;;;;;32.33;20.58;;;5.50;58.60;;;;;;5057568;28;20029;-50
2022/03/08 01:04:13;;;;;;;30.00;19.98;;;5.40;57.90;;;;;;5057401;28;20111;-49
2022/03/08 01:06:41;;;;;;;28.35;19.00;;;5.40;57.90;;;;;;5057275;28;20071;-52
2022/03/08 01:09:07;;;;;;;30.58;20.30;;;5.40;59.30;;;;;;5057427;28;20028;-50
2022/03/08 01:11:36;;;;;;;32.63;21.50;;;5.40;58.40;;;;;;5057677;28;20021;-47
2022/03/08 01:14:03;;;;;;;33.10;20.85;;;5.40;58.10;;;;;;5057092;28;20043;-48
2022/03/08 01:16:28;;;;;;;31.75;21.65;;;5.30;59.60;;;;;;5057226;28;20017;-48
2022/03/08 01:18:54;;;;;;;29.42;19.67;;;5.30;59.50;;;;;;5057162;28;20029;-49
2022/03/08 01:21:20;;;;;;;34.63;21.25;;;5.30;57.80;;;;;;5057135;28;20081;-47
2022/03/08 01:23:46;;;;;;;29.00;20.58;;;5.20;59.80;;;;;;5056672;28;20045;-48
2022/03/08 01:26:11;;;;;;;30.88;19.83;;;5.20;59.10;;;;;;5057117;28;20029;-47
2022/03/08 01:28:37;;;;;;;29.45;20.15;;;5.20;58.90;;;;;;5057395;28;20029;-48
2022/03/08 01:31:03;;;;;;;29.02;19.77;;;5.20;60.20;;;;;;5057204;28;20055;-48
2022/03/08 01:33:29;;;;;;;32.60;20.00;;;5.10;58.90;;;;;;5057420;28;20029;-48
2022/03/08 01:35:55;;;;;;;32.53;20.25;;;5.20;59.00;;;;;;5057166;28;20021;-47
2022/03/08 01:38:21;;;;;;;31.70;18.98;;;5.10;57.80;;;;;;5057002;28;20056;-47
2022/03/08 01:40:48;;;;;;;29.08;20.42;;;5.10;59.70;;;;;;5057091;28;20028;-47
2022/03/08 01:43:13;;;;;;;29.88;19.77;;;5.10;60.00;;;;;;5056828;28;20033;-50
2022/03/08 01:45:39;;;;;;;31.63;18.23;;;5.10;59.20;;;;;;5056907;28;20027;-50
2022/03/08 01:48:05;;;;;;;28.17;19.48;;;5.10;60.00;;;;;;5059104;28;20029;-47
2022/03/08 01:50:31;;;;;;;30.38;20.17;;;5.10;60.00;;;;;;5060824;28;20444;-48
2022/03/08 01:52:57;;;;;;;29.88;19.30;;;5.10;60.50;;;;;;5060397;28;20059;-47
2022/03/08 01:55:25;;;;;;;32.33;20.55;;;5.20;60.60;;;;;;5060330;28;20059;-47
2022/03/08 01:57:52;;;;;;;29.83;18.88;;;5.20;60.30;;;;;;5060673;28;20033;-49
2022/03/08 02:00:22;;;;;;;32.20;19.45;;;5.30;60.00;;;;;;5059606;28;20031;-53
2022/03/08 02:02:48;;;;;;;32.20;20.48;;;5.40;60.40;;;;;;5060308;28;20104;-47
2022/03/08 02:05:14;;;;;;;29.15;19.13;;;5.40;60.50;;;;;;5060129;28;20028;-48
2022/03/08 02:07:40;;;;;;;29.67;19.77;;;5.50;60.90;;;;;;5060130;28;20021;-47
2022/03/08 02:10:08;;;;;;;31.25;19.40;;;5.50;60.30;;;;;;5060077;28;20013;-49
2022/03/08 02:12:34;;;;;;;29.58;19.35;;;5.60;61.10;;;;;;5059999;28;20037;-47
2022/03/08 02:15:11;;;;;;;32.28;21.10;;;5.70;60.30;;;;;;5059955;28;20028;-48
2022/03/08 02:17:36;;;;;;;31.02;20.15;;;5.70;60.40;;;;;;5059950;28;20028;-49
2022/03/08 02:20:02;;;;;;;27.85;18.48;;;5.70;61.90;;;;;;5059861;28;20025;-49
2022/03/08 02:22:28;;;;;;;29.02;19.17;;;5.80;60.60;;;;;;5059824;28;20053;-50
2022/03/08 02:24:54;;;;;;;32.70;19.85;;;5.80;61.10;;;;;;5058393;28;20040;-52
2022/03/08 02:27:20;;;;;;;30.48;18.77;;;5.80;61.70;;;;;;5059723;28;20025;-49
2022/03/08 02:29:46;;;;;;;32.45;20.40;;;5.90;61.10;;;;;;5060013;28;20017;-51
2022/03/08 02:32:11;;;;;;;33.28;21.58;;;5.90;62.00;;;;;;5059642;28;20017;-48
2022/03/08 02:34:37;;;;;;;30.27;19.60;;;6.00;61.60;;;;;;5059919;28;20060;-49
2022/03/08 02:37:08;;;;;;;29.95;18.70;;;6.00;62.10;;;;;;5059587;28;20412;-48
2022/03/08 02:39:35;;;;;;;32.08;19.20;;;6.00;61.80;;;;;;5059565;28;20032;-50
2022/03/08 02:42:01;;;;;;;28.45;19.52;;;5.90;61.30;;;;;;5059481;28;20029;-48
2022/03/08 02:44:27;;;;;;;27.48;19.10;;;6.00;61.70;;;;;;5059498;28;20047;-48
2022/03/08 02:46:54;;;;;;;31.10;19.40;;;5.90;61.70;;;;;;5059327;28;20496;-51
2022/03/08 02:49:19;;;;;;;32.83;19.63;;;5.90;62.20;;;;;;5059522;28;20105;-47
2022/03/08 02:51:46;;;;;;;31.15;20.08;;;5.90;61.30;;;;;;5059279;28;20067;-47
2022/03/08 02:54:12;;;;;;;32.17;19.80;;;5.90;63.00;;;;;;5059260;28;20014;-48
2022/03/08 02:56:38;;;;;;;28.13;18.45;;;5.80;62.00;;;;;;5059365;28;20040;-50
2022/03/08 02:59:04;;;;;;;29.27;19.20;;;5.90;61.70;;;;;;5058841;28;20112;-47
2022/03/08 03:01:29;;;;;;;30.13;19.52;;;5.90;62.20;;;;;;5059069;28;20607;-47
2022/03/08 03:03:56;;;;;;;30.25;19.10;;;5.80;62.00;;;;;;5059029;28;20033;-47
2022/03/08 03:06:22;;;;;;;27.20;18.30;;;5.80;62.50;;;;;;5058994;28;20024;-50
2022/03/08 03:08:47;;;;;;;28.75;19.27;;;5.80;61.90;;;;;;5058747;28;20017;-47
2022/03/08 03:11:13;;;;;;;29.73;17.88;;;5.80;62.30;;;;;;5059078;28;20040;-47
2022/03/08 03:13:39;;;;;;;31.40;18.25;;;5.80;63.00;;;;;;5058771;28;20029;-48
2022/03/08 03:16:05;;;;;;;29.35;18.98;;;5.80;62.70;;;;;;5058818;28;20036;-47
2022/03/08 03:18:31;;;;;;;25.58;17.27;;;5.70;62.40;;;;;;5058956;28;20025;-49
2022/03/08 03:20:56;;;;;;;27.80;17.83;;;5.70;62.70;;;;;;5058883;28;20040;-47
2022/03/08 03:23:22;;;;;;;28.80;18.33;;;5.70;63.20;;;;;;5058500;28;20045;-51
2022/03/08 03:25:48;;;;;;;27.38;18.20;;;5.70;63.10;;;;;;5058804;28;20033;-47
2022/03/08 03:28:13;;;;;;;31.70;18.88;;;5.70;62.30;;;;;;5058582;28;20025;-48
2022/03/08 03:30:39;;;;;;;28.33;17.58;;;5.70;62.80;;;;;;5058511;28;20051;-48
2022/03/08 03:33:05;;;;;;;25.90;18.10;;;5.60;62.90;;;;;;5058796;28;20021;-48
2022/03/08 03:35:31;;;;;;;30.73;19.08;;;5.70;63.60;;;;;;5058430;28;20024;-47
2022/03/08 03:37:57;;;;;;;26.85;16.75;;;5.70;61.90;;;;;;5058476;28;20013;-47
2022/03/08 03:40:22;;;;;;;27.88;17.75;;;5.60;63.20;;;;;;5058369;28;20052;-47
2022/03/08 03:42:48;;;;;;;28.33;17.92;;;5.60;63.40;;;;;;5058307;28;20021;-47
2022/03/08 03:45:15;;;;;;;30.23;18.30;;;5.60;62.10;;;;;;5058467;28;20029;-49
2022/03/08 03:47:41;;;;;;;27.13;16.95;;;5.60;61.70;;;;;;5058365;28;20021;-47
2022/03/08 03:50:08;;;;;;;27.67;18.17;;;5.60;62.00;;;;;;5058392;28;20013;-47
2022/03/08 03:52:34;;;;;;;29.77;17.98;;;5.60;62.30;;;;;;5058340;28;20017;-51
2022/03/08 03:55:02;;;;;;;30.50;18.38;;;5.60;63.30;;;;;;5058108;28;20495;-50
2022/03/08 03:57:27;;;;;;;28.33;17.15;;;5.60;63.20;;;;;;5058778;28;20029;-50
2022/03/08 03:59:53;;;;;;;27.73;17.40;;;5.60;64.40;;;;;;5058197;28;20770;-49
2022/03/08 04:02:19;;;;;;;28.67;16.92;;;5.60;62.40;;;;;;5058345;28;20485;-47
2022/03/08 04:04:45;;;;;;;26.48;17.75;;;5.60;63.70;;;;;;5057852;28;20099;-47
2022/03/08 04:07:11;;;;;;;27.52;17.42;;;5.60;63.80;;;;;;5058118;28;20037;-50
2022/03/08 04:09:37;;;;;;;28.33;18.80;;;5.70;63.90;;;;;;5057546;28;20032;-49
2022/03/08 04:12:03;;;;;;;29.58;17.48;;;5.70;63.90;;;;;;5058033;28;20104;-48
2022/03/08 04:14:29;;;;;;;27.33;17.98;;;5.80;63.40;;;;;;5057687;28;20116;-47
2022/03/08 04:16:55;;;;;;;26.25;16.10;;;5.90;62.70;;;;;;5057825;28;20102;-52
2022/03/08 04:19:20;;;;;;;28.65;16.58;;;5.90;63.30;;;;;;5057647;28;20504;-47
2022/03/08 04:21:46;;;;;;;26.77;16.55;;;5.90;63.00;;;;;;5058077;28;20027;-48
2022/03/08 04:24:12;;;;;;;26.48;17.48;;;6.00;63.70;;;;;;5057254;28;20052;-47
2022/03/08 04:26:38;;;;;;;25.25;16.20;;;6.00;62.90;;;;;;5058025;28;20017;-49
2022/03/08 04:29:03;;;;;;;29.58;17.58;;;6.10;62.20;;;;;;5057599;28;20036;-48
2022/03/08 04:31:29;;;;;;;28.00;18.17;;;6.10;64.60;;;;;;5057562;28;20025;-47
2022/03/08 04:33:55;;;;;;;26.30;16.30;;;6.10;62.40;;;;;;5058004;28;20029;-49
2022/03/08 04:36:21;;;;;;;26.27;17.40;;;6.20;63.20;;;;;;5057600;28;20423;-49
2022/03/08 04:38:46;;;;;;;27.42;17.73;;;6.20;63.20;;;;;;5057692;28;20029;-47
2022/03/08 04:41:12;;;;;;;29.17;17.40;;;6.20;62.40;;;;;;5057684;28;20052;-47
2022/03/08 04:43:38;;;;;;;26.05;16.10;;;6.30;63.10;;;;;;5057570;28;20032;-50
2022/03/08 04:46:04;;;;;;;26.67;16.98;;;6.30;62.80;;;;;;5057494;28;20017;-49
2022/03/08 04:48:29;;;;;;;26.27;16.63;;;6.30;63.40;;;;;;5057471;28;20029;-52
2022/03/08 04:50:55;;;;;;;25.95;16.33;;;6.30;65.50;;;;;;5057652;28;20021;-50
2022/03/08 04:53:21;;;;;;;25.48;16.83;;;6.40;63.50;;;;;;5057365;28;20033;-49
2022/03/08 04:55:47;;;;;;;27.42;16.73;;;6.40;63.80;;;;;;5057367;28;20452;-49
2022/03/08 04:58:12;;;;;;;25.02;16.80;;;6.50;65.30;;;;;;5057819;28;20029;-47
2022/03/08 05:00:38;;;;;;;26.42;17.02;;;6.60;65.60;;;;;;5057313;28;20048;-48
2022/03/08 05:03:04;;;;;;;25.65;16.85;;;6.60;65.00;;;;;;5056694;28;20104;-49
2022/03/08 05:05:32;;;;;;;26.58;16.25;;;6.70;66.30;;;;;;5057259;28;20032;-47
2022/03/08 05:07:59;;;;;;;26.58;16.60;;;6.80;64.70;;;;;;5055271;28;20021;-47
2022/03/08 05:10:25;;;;;;;26.70;17.60;;;6.80;64.70;;;;;;5055317;28;20025;-50
2022/03/08 05:12:52;;;;;;;30.08;19.40;;;6.90;65.10;;;;;;5055482;28;20051;-49
2022/03/08 05:15:18;;;;;;;25.98;16.02;;;6.90;66.10;;;;;;5056504;28;20980;-48
2022/03/08 05:17:44;;;;;;;28.42;18.27;;;7.00;64.30;;;;;;5057618;28;20025;-50
2022/03/08 05:20:10;;;;;;;30.52;18.65;;;7.00;65.90;;;;;;5057360;28;20024;-47
2022/03/08 05:22:36;;;;;;;25.52;16.20;;;7.00;64.80;;;;;;5058417;28;20048;-49
2022/03/08 05:25:03;;;;;;;27.85;17.63;;;7.00;65.80;;;;;;5060551;28;20029;-54
2022/03/08 05:27:29;;;;;;;25.45;16.35;;;7.00;65.80;;;;;;5060597;28;20100;-48
2022/03/08 05:29:55;;;;;;;25.58;16.40;;;7.00;65.80;;;;;;5060791;28;20104;-49
2022/03/08 05:32:20;;;;;;;24.73;16.05;;;7.00;65.50;;;;;;5060575;28;20053;-50
2022/03/08 05:34:46;;;;;;;27.05;17.63;;;6.90;66.40;;;;;;5060641;28;20029;-48
2022/03/08 05:37:12;;;;;;;29.40;17.58;;;6.90;65.40;;;;;;5060475;28;20104;-49
2022/03/08 05:39:38;;;;;;;26.00;16.85;;;6.90;64.70;;;;;;5060411;28;20031;-49
2022/03/08 05:42:04;;;;;;;25.02;16.67;;;6.90;66.30;;;;;;5060612;28;20091;-47
2022/03/08 05:44:30;;;;;;;26.42;16.35;;;6.90;66.30;;;;;;5060577;28;20047;-49
2022/03/08 05:46:55;;;;;;;27.60;17.00;;;6.90;66.50;;;;;;5060253;28;20486;-48
2022/03/08 05:49:22;;;;;;;27.95;17.02;;;6.90;66.00;;;;;;5060660;28;20025;-51
2022/03/08 05:51:48;;;;;;;23.35;15.70;;;6.80;65.00;;;;;;5059713;28;20465;-50
2022/03/08 05:54:16;;;;;;;25.50;16.98;;;6.90;66.00;;;;;;5059503;28;20025;-51
2022/03/08 05:56:42;;;;;;;24.42;15.70;;;6.90;66.80;;;;;;5058285;28;20758;-47
2022/03/08 05:59:08;;;;;;;25.33;15.93;;;6.80;65.70;;;;;;5059654;28;20029;-49
2022/03/08 06:01:34;;;;;;;26.38;16.92;;;6.90;65.40;;;;;;5059396;28;20373;-50
2022/03/08 06:04:00;;;;;;;26.05;16.38;;;6.90;64.70;;;;;;5059930;28;20111;-50
2022/03/08 06:06:26;;;;;;;26.38;17.35;;;6.90;66.40;;;;;;5060284;28;20056;-48
2022/03/08 06:08:52;;;;;;;28.20;17.05;;;7.00;66.70;;;;;;5060267;28;20032;-50
2022/03/08 06:11:17;;;;;;;25.42;16.75;;;7.10;66.30;;;;;;5060241;28;20036;-50
2022/03/08 06:13:43;;;;;;;29.63;17.08;;;7.20;67.30;;;;;;5060424;28;20432;-50
2022/03/08 06:16:09;;;;;;;27.88;16.73;;;7.20;65.60;;;;;;5060180;28;20139;-48
2022/03/08 06:18:35;;;;;;;28.52;17.88;;;7.30;67.00;;;;;;5060009;28;20032;-50
2022/03/08 06:21:01;;;;;;;30.88;17.02;;;7.40;66.20;;;;;;5060369;28;20362;-48
2022/03/08 06:23:26;;;;;;;24.35;17.10;;;7.50;67.50;;;;;;5059675;28;20045;-53
2022/03/08 06:25:52;;;;;;;27.55;15.90;;;7.50;67.20;;;;;;5059771;28;20021;-53
2022/03/08 06:28:19;;;;;;;27.38;17.02;;;7.60;68.30;;;;;;5059985;28;20028;-49
2022/03/08 06:30:45;;;;;;;26.63;17.52;;;7.60;66.20;;;;;;5059618;28;20449;-51
2022/03/08 06:33:10;;;;;;;27.95;17.02;;;7.70;66.30;;;;;;5059236;28;20094;-49
2022/03/08 06:35:36;;;;;;;23.98;15.20;;;7.70;66.70;;;;;;5059895;28;20068;-50
2022/03/08 06:38:02;;;;;;;24.90;15.93;;;7.80;66.00;;;;;;5059791;28;20032;-51
2022/03/08 06:40:28;;;;;;;25.98;15.82;;;7.80;68.20;;;;;;5059558;28;20071;-50
2022/03/08 06:42:54;;;;;;;26.60;16.05;;;7.90;67.50;;;;;;5058161;28;20025;-50
2022/03/08 06:45:20;;;;;;;23.88;15.80;;;7.90;67.60;;;;;;5059557;28;20027;-49
2022/03/08 06:47:46;;;;;;;22.95;14.88;;;8.00;67.00;;;;;;5059574;28;20027;-51
2022/03/08 06:50:12;;;;;;;28.70;14.52;;;8.20;72.70;;;;;;5059343;28;20092;-51
2022/03/08 06:52:38;;;;;;;25.20;13.98;;;8.30;69.00;;;;;;5059324;28;20052;-51
2022/03/08 06:55:05;;;;;;;23.98;13.85;;;8.40;69.40;;;;;;5059271;28;20029;-51
2022/03/08 06:57:31;;;;;;;27.55;14.77;;;8.50;69.00;;;;;;5059169;28;20020;-50
2022/03/08 06:59:57;;;;;;;25.13;14.45;;;8.70;71.80;;;;;;5059095;28;20040;-51
2022/03/08 07:02:23;;;;;;;27.95;14.20;;;8.80;72.00;;;;;;5059291;28;20035;-49
2022/03/08 07:04:49;;;;;;;23.75;14.70;;;8.90;69.20;;;;;;5059184;28;20126;-54
2022/03/08 07:07:15;;;;;;;22.27;14.13;;;8.90;68.30;;;;;;5059315;28;20021;-52
2022/03/08 07:09:40;;;;;;;26.13;14.10;;;9.00;69.00;;;;;;5058974;28;20075;-50
2022/03/08 07:12:07;;;;;;;27.92;13.77;;;9.10;72.50;;;;;;5058960;28;20564;-50
2022/03/08 07:14:32;;;;;;;29.45;13.35;;;9.20;71.30;;;;;;5059069;28;20056;-51
2022/03/08 07:16:58;;;;;;;22.33;13.35;;;9.20;72.80;;;;;;5058847;28;20018;-53
2022/03/08 07:19:24;;;;;;;24.52;13.70;;;9.30;73.20;;;;;;5058795;28;20021;-54
2022/03/08 07:21:50;;;;;;;22.00;12.30;;;9.30;69.60;;;;;;5058764;28;20025;-50
2022/03/08 07:24:16;;;;;;;24.55;13.27;;;9.30;71.30;;;;;;5058355;28;20077;-52
2022/03/08 07:26:42;;;;;;;24.77;13.95;;;9.40;71.80;;;;;;5059122;28;20017;-47
2022/03/08 07:29:08;;;;;;;22.02;12.23;;;9.40;69.80;;;;;;5058573;28;20431;-53
2022/03/08 07:31:34;;;;;;;21.10;13.10;;;9.40;70.30;;;;;;5058973;28;20025;-50
2022/03/08 07:34:00;;;;;;;24.45;14.13;;;9.50;70.60;;;;;;5058525;28;20029;-51
2022/03/08 07:36:26;;;;;;;23.85;15.88;;;9.40;71.00;;;;;;5058223;28;20028;-52
2022/03/08 07:38:52;;;;;;;25.15;15.40;;;9.40;69.40;;;;;;5058325;28;20400;-52
2022/03/08 07:41:18;;;;;;;24.80;14.65;;;9.40;70.00;;;;;;5058864;28;20112;-49
2022/03/08 07:43:44;;;;;;;27.05;16.17;;;9.20;70.00;;;;;;5058295;28;20056;-50
2022/03/08 07:46:11;;;;;;;22.80;13.70;;;9.30;68.60;;;;;;5057388;28;20029;-49
2022/03/08 07:48:37;;;;;;;22.10;13.75;;;9.20;68.20;;;;;;5058709;28;20025;-50
2022/03/08 07:51:04;;;;;;;24.10;13.98;;;9.30;69.60;;;;;;5058451;28;20096;-52
2022/03/08 07:53:30;;;;;;;25.58;13.75;;;9.30;74.30;;;;;;5058395;28;20029;-49
2022/03/08 07:55:56;;;;;;;24.67;13.57;;;9.30;70.50;;;;;;5058578;28;20094;-50
2022/03/08 07:58:22;;;;;;;20.60;12.15;;;9.30;69.30;;;;;;5058096;28;20021;-52
2022/03/08 08:00:48;;;;;;;24.05;13.55;;;9.30;70.90;;;;;;5058066;28;20028;-51
2022/03/08 08:03:14;;;;;;;24.92;12.43;;;9.40;72.90;;;;;;5058149;28;20037;-48
2022/03/08 08:05:40;;;;;;;22.25;12.43;;;9.40;72.40;;;;;;5058168;28;20035;-50
2022/03/08 08:08:06;;;;;;;19.25;10.40;;;9.40;71.00;;;;;;5058183;28;20036;-50
2022/03/08 08:10:33;;;;;;;18.92;10.02;;;9.50;73.30;;;;;;5058120;28;20424;-51
2022/03/08 08:13:00;;;;;;;22.67;10.18;;;9.60;73.50;;;;;;5058090;28;20465;-51
2022/03/08 08:15:26;;;;;;;23.00;9.20;;;9.70;75.60;;;;;;5057824;28;20479;-52
2022/03/08 08:17:51;;;;;;;18.83;8.80;;;9.80;77.40;;;;;;5057749;28;20492;-50
2022/03/08 08:20:18;;;;;;;19.35;9.15;;;9.90;79.30;;;;;;5057741;28;20024;-53
2022/03/08 08:22:44;;;;;;;20.83;9.57;;;10.10;75.90;;;;;;5057512;28;20083;-50
2022/03/08 08:25:10;;;;;;;18.10;8.65;;;10.10;80.10;;;;;;5057610;28;20047;-49
2022/03/08 08:27:37;;;;;;;16.08;9.05;;;10.20;76.70;;;;;;5058143;28;20100;-51
2022/03/08 08:30:09;;;;;;;20.20;8.50;;;10.20;77.20;;;;;;5057862;28;20021;-54
2022/03/08 08:32:34;;;;;;;30.33;9.73;;;10.30;83.80;;;;;;5057418;28;20501;-52
2022/03/08 08:35:00;;;;;;;16.67;9.70;;;10.30;84.60;;;;;;5058007;28;20094;-51
2022/03/08 08:37:26;;;;;;;21.50;8.82;;;10.40;76.30;;;;;;5057461;28;20113;-52
2022/03/08 08:39:52;;;;;;;19.95;8.43;;;10.40;82.30;;;;;;5057515;28;20037;-51
2022/03/08 08:42:18;;;;;;;21.17;9.20;;;10.50;79.30;;;;;;5057324;28;20432;-54
2022/03/08 08:44:45;;;;;;;20.30;8.30;;;10.50;84.00;;;;;;5057770;28;20083;-52
2022/03/08 08:47:11;;;;;;;18.63;8.52;;;10.60;82.20;;;;;;5057491;28;20087;-54
2022/03/08 08:49:37;;;;;;;22.27;9.38;;;10.60;82.20;;;;;;5057530;28;20083;-50
2022/03/08 08:52:03;;;;;;;20.83;8.65;;;10.70;78.20;;;;;;5057404;28;20048;-52
2022/03/08 08:54:29;;;;;;;23.42;9.48;;;10.80;77.80;;;;;;5057492;28;20025;-51
2022/03/08 08:56:55;;;;;;;24.10;9.73;;;10.80;79.60;;;;;;5059703;28;20025;-49
2022/03/08 08:59:21;;;;;;;22.95;9.50;;;10.80;79.30;;;;;;5061467;28;20037;-53
2022/03/08 09:01:46;;;;;;;24.00;8.63;;;10.80;77.30;;;;;;5061579;28;20488;-51
2022/03/08 09:04:12;;;;;;;23.77;9.93;;;10.80;80.80;;;;;;5061296;28;20104;-47
2022/03/08 09:06:40;;;;;;;20.25;9.13;;;10.80;82.60;;;;;;5061389;28;20028;-47
2022/03/08 09:09:05;;;;;;;23.15;9.32;;;10.80;84.00;;;;;;5061253;28;20354;-48
2022/03/08 09:11:31;;;;;;;20.42;9.07;;;10.80;87.90;;;;;;5061183;28;20039;-48
2022/03/08 09:13:58;;;;;;;23.77;9.82;;;10.90;83.90;;;;;;5061403;28;20049;-47
2022/03/08 09:16:24;;;;;;;20.83;9.27;;;10.80;88.80;;;;;;5061060;28;20458;-47
2022/03/08 09:18:50;;;;;;;20.58;9.02;;;10.80;86.30;;;;;;5061204;28;20056;-49
2022/03/08 09:21:16;;;;;;;22.60;9.68;;;10.90;86.50;;;;;;5060610;28;20021;-48
2022/03/08 09:23:41;;;;;;;19.80;9.35;;;10.90;89.00;;;;;;5060257;28;20047;-49
2022/03/08 09:26:08;;;;;;;23.23;8.65;;;10.90;90.80;;;;;;5060495;28;20491;-48
2022/03/08 09:28:34;;;;;;;25.13;8.73;;;11.00;90.20;;;;;;5060545;28;20480;-48
2022/03/08 09:30:59;;;;;;;20.77;7.90;;;11.10;91.30;;;;;;5060507;28;20706;-47
2022/03/08 09:33:26;;;;;;;24.10;8.35;;;11.10;88.40;;;;;;5060248;28;20033;-49
2022/03/08 09:35:52;;;;;;;21.17;8.00;;;11.20;88.00;;;;;;5060194;28;20449;-48
2022/03/08 09:38:18;;;;;;;15.80;6.65;;;11.20;90.60;;;;;;5060926;28;20087;-50
2022/03/08 09:40:44;;;;;;;15.65;6.65;;;11.30;86.60;;;;;;5060177;28;20508;-49
2022/03/08 09:43:11;;;;;;;15.50;6.15;;;11.40;85.40;;;;;;5060721;28;20029;-49
2022/03/08 09:45:37;;;;;;;18.95;6.90;;;11.50;85.10;;;;;;5060274;28;20092;-49
2022/03/08 09:48:04;;;;;;;17.08;6.40;;;11.50;85.40;;;;;;5060254;28;20053;-48
2022/03/08 09:50:30;;;;;;;14.70;5.63;;;11.50;82.60;;;;;;5060380;28;20534;-47
2022/03/08 09:52:57;;;;;;;17.63;5.60;;;11.50;82.90;;;;;;5060394;28;20017;-49
2022/03/08 09:55:25;;;;;;;16.10;6.13;;;11.40;82.00;;;;;;5059902;28;20029;-47
2022/03/08 09:57:52;;;;;;;17.40;6.03;;;11.40;80.50;;;;;;5060093;28;20104;-49
2022/03/08 10:00:19;;;;;;;17.08;5.75;;;11.40;81.00;;;;;;5060035;28;20370;-50
2022/03/08 10:02:48;;;;;;;14.88;6.03;;;11.40;79.70;;;;;;5059931;28;20079;-47
2022/03/08 10:05:15;;;;;;;16.10;6.18;;;11.40;80.30;;;;;;5059625;28;20043;-50
2022/03/08 10:08:01;;;;;;;15.73;5.60;;;11.40;78.00;;;;;;5058712;28;20029;-48
2022/03/08 10:10:31;;;;;;;11.68;5.20;;;11.50;77.70;;;;;;5059641;28;20021;-47
2022/03/08 10:12:58;;;;;;;12.30;5.63;;;11.50;76.80;;;;;;5059459;28;20481;-48
2022/03/08 10:15:24;;;;;;;13.00;5.20;;;11.60;76.70;;;;;;5059710;28;20148;-50
2022/03/08 10:17:50;;;;;;;12.50;5.32;;;11.80;76.80;;;;;;5059678;28;20036;-50
2022/03/08 10:20:31;;;;;;;10.55;4.65;;;12.20;76.20;;;;;;5059751;28;20024;-48
2022/03/08 10:22:57;;;;;;;8.43;4.32;;;12.60;74.30;;;;;;5058980;28;20143;-49
2022/03/08 10:25:26;;;;;;;9.82;3.97;;;12.90;72.20;;;;;;5058001;28;20041;-48
2022/03/08 10:27:55;;;;;;;14.10;5.40;;;13.20;71.50;;;;;;5057431;28;20539;-50
2022/03/08 10:30:22;;;;;;;14.23;4.50;;;13.60;70.00;;;;;;5057999;28;20370;-49
2022/03/08 10:32:48;;;;;;;10.73;4.13;;;14.00;67.80;;;;;;5058939;28;20017;-49
2022/03/08 10:35:28;;;;;;;10.32;4.00;;;14.50;68.60;;;;;;5059410;28;20029;-48
2022/03/08 10:38:00;;;;;;;11.05;4.60;;;14.80;66.60;;;;;;5059570;28;20454;-48
2022/03/08 10:40:35;;;;;;;11.95;4.75;;;15.10;65.90;;;;;;5059546;28;20086;-47
2022/03/08 10:43:11;;;;;;;11.05;4.78;;;15.20;64.70;;;;;;5056971;28;20040;-51
2022/03/08 10:45:48;;;;;;;10.38;3.90;;;15.50;65.50;;;;;;5057294;28;20536;-47
2022/03/08 10:48:18;;;;;;;13.73;4.75;;;15.90;66.00;;;;;;5058175;28;20028;-49
2022/03/08 10:50:45;;;;;;;10.98;4.10;;;16.20;63.50;;;;;;5058016;28;20489;-52
2022/03/08 10:53:13;;;;;;;9.32;4.35;;;16.30;62.50;;;;;;5058251;28;20540;-49
2022/03/08 10:55:50;;;;;;;13.35;4.93;;;16.60;63.00;;;;;;5058332;28;20484;-50
2022/03/08 10:58:17;;;;;;;10.98;4.35;;;16.90;63.40;;;;;;5058696;28;20081;-48
2022/03/08 11:00:51;;;;;;;10.52;4.03;;;17.00;60.80;;;;;;5058750;28;20029;-48
2022/03/08 11:03:20;;;;;;;10.73;4.22;;;16.90;61.10;;;;;;5058918;28;20021;-49
2022/03/08 11:05:55;;;;;;;13.02;4.30;;;17.10;61.60;;;;;;5058741;28;20032;-49
2022/03/08 11:08:21;;;;;;;;;;;17.50;61.80;;;;;;5058659;28;20451;-50
2022/03/08 11:10:47;;;;;;;10.82;4.10;;;17.80;60.00;;;;;;5058508;28;19987;-50
2022/03/08 11:13:16;;;;;;;8.82;3.88;;;18.20;61.20;;;;;;5058338;28;20178;-48
2022/03/08 11:15:43;;;;;;;9.88;3.88;;;18.20;60.20;;;;;;5058554;28;20021;-49
2022/03/08 11:18:11;;;;;;;9.45;3.25;;;18.00;58.50;;;;;;5058528;28;20025;-49
2022/03/08 11:20:39;;;;;;;9.50;2.92;;;17.80;59.30;;;;;;5058442;28;20018;-49
2022/03/08 11:23:06;;;;;;;7.82;2.10;;;17.70;58.20;;;;;;5058081;28;20073;-48
2022/03/08 11:25:40;;;;;;;9.07;2.20;;;17.70;56.50;;;;;;5058139;28;20029;-47
2022/03/08 11:28:07;;;;;;;7.80;1.98;;;17.20;57.40;;;;;;5058350;28;20024;-49
2022/03/08 11:30:43;;;;;;;7.38;1.88;;;17.40;57.90;;;;;;5058156;28;20043;-51
2022/03/08 11:33:30;;;;;;;10.95;2.20;;;18.00;58.70;;;;;;5058017;28;20024;-48
2022/03/08 11:36:04;;;;;;;9.77;2.00;;;18.10;57.70;;;;;;5058512;28;20049;-47
2022/03/08 11:38:30;;;;;;;8.18;2.40;;;17.70;57.30;;;;;;5058526;28;20082;-47
2022/03/08 11:40:58;;;;;;;8.30;1.90;;;16.90;58.70;;;;;;5058819;28;20033;-48
2022/03/08 11:43:37;;;;;;;9.60;3.15;;;16.40;60.70;;;;;;5058495;28;20507;-50
2022/03/08 11:46:13;;;;;;;11.55;2.63;;;16.10;61.40;;;;;;5058573;28;20475;-48
2022/03/08 11:48:54;;;;;;;9.80;2.67;;;15.80;62.00;;;;;;5058246;28;20036;-48
2022/03/08 11:51:21;;;;;;;8.82;2.25;;;15.30;62.60;;;;;;5058425;28;20052;-48
2022/03/08 11:53:47;;;;;;;5.32;1.85;;;14.70;64.60;;;;;;5056767;28;20029;-48
2022/03/08 11:56:17;;;;;;;11.70;2.20;;;14.30;65.30;;;;;;5058302;28;20036;-48
2022/03/08 11:58:45;;;;;;;11.20;2.42;;;14.20;65.90;;;;;;5057932;28;20389;-48
2022/03/08 12:01:32;;;;;;;8.25;2.08;;;13.90;66.80;;;;;;5058269;28;20032;-47
2022/03/08 12:04:06;;;;;;;8.20;2.63;;;13.70;66.50;;;;;;5057967;28;20025;-48
2022/03/08 12:06:37;;;;;;;10.50;2.10;;;13.40;67.90;;;;;;5058438;28;20017;-48
2022/03/08 12:09:13;;;;;;;7.50;2.13;;;13.20;68.60;;;;;;5058165;28;20045;-48
2022/03/08 12:12:00;;;;;;;8.45;2.17;;;13.00;69.80;;;;;;5058111;28;20021;-48
2022/03/08 12:14:30;;;;;;;8.68;2.40;;;12.90;70.00;;;;;;5057934;28;20089;-48
2022/03/08 12:17:20;;;;;;;13.70;3.25;;;12.80;70.10;;;;;;5058009;28;20033;-48
2022/03/08 12:19:48;;;;;;;8.02;2.65;;;12.50;73.40;;;;;;5057992;28;20029;-47
2022/03/08 12:22:22;;;;;;;11.20;2.90;;;12.50;72.10;;;;;;5057730;28;20048;-48
2022/03/08 12:24:56;;;;;;;8.67;2.27;;;12.50;73.50;;;;;;5057899;28;20029;-47
2022/03/08 12:27:23;;;;;;;;;;;12.40;74.60;;;;;;5058553;28;20278;-47
2022/03/08 12:30:03;;;;;;;9.52;2.67;;;12.40;75.50;;;;;;5057597;28;19908;-48
2022/03/08 12:32:34;;;;;;;8.40;2.45;;;12.40;73.70;;;;;;5057293;28;20044;-48
2022/03/08 12:35:13;;;;;;;7.18;2.63;;;12.40;76.30;;;;;;5057852;28;20031;-50
2022/03/08 12:37:46;;;;;;;9.35;2.97;;;12.40;75.80;;;;;;5057523;28;20111;-48